createdAt,value
2022-08-19T00:00:06.625Z,5.30
2022-08-19T00:02:36.608Z,5.37
2022-08-19T00:05:06.169Z,5.60
2022-08-19T00:07:34.431Z,5.20
2022-08-19T00:10:02.626Z,5.13
2022-08-19T00:12:30.902Z,5.20
2022-08-19T00:14:59.311Z,5.40
2022-08-19T00:17:27.511Z,5.47
2022-08-19T00:19:57.298Z,5.00
2022-08-19T00:22:28.152Z,4.47
2022-08-19T00:24:56.581Z,5.30
2022-08-19T00:27:26.914Z,5.10
2022-08-19T00:29:55.450Z,4.87
2022-08-19T00:32:24.030Z,5.57
2022-08-19T00:34:54.464Z,5.70
2022-08-19T00:37:26.618Z,5.87
2022-08-19T00:39:56.921Z,5.80
2022-08-19T00:42:29.412Z,5.17
2022-08-19T00:44:57.839Z,5.33
2022-08-19T00:47:26.088Z,5.33
2022-08-19T00:49:58.049Z,5.53
2022-08-19T00:52:31.040Z,5.27
2022-08-19T00:55:00.616Z,5.33
2022-08-19T00:57:34.442Z,4.87
2022-08-19T01:00:04.251Z,5.17
2022-08-19T01:02:34.524Z,5.43
2022-08-19T01:05:07.069Z,5.20
2022-08-19T01:07:38.447Z,5.93
2022-08-19T01:10:12.758Z,5.57
2022-08-19T01:12:41.645Z,5.90
2022-08-19T01:15:12.895Z,5.40
2022-08-19T01:17:42.816Z,5.70
2022-08-19T01:20:14.551Z,5.17
2022-08-19T01:22:47.123Z,5.90
2022-08-19T01:25:16.842Z,5.33
2022-08-19T01:27:48.532Z,5.80
2022-08-19T01:30:23.524Z,5.80
2022-08-19T01:32:52.018Z,5.50
2022-08-19T01:35:21.160Z,5.17
2022-08-19T01:37:53.381Z,6.20
2022-08-19T01:40:23.643Z,5.83
2022-08-19T01:42:52.916Z,5.57
2022-08-19T01:45:22.898Z,5.90
2022-08-19T01:48:01.296Z,5.77
2022-08-19T01:50:31.302Z,6.40
2022-08-19T01:53:06.158Z,6.40
2022-08-19T01:55:40.828Z,6.17
2022-08-19T01:58:13.857Z,6.30
2022-08-19T02:00:42.896Z,6.83
2022-08-19T02:03:12.384Z,6.53
2022-08-19T02:05:42.023Z,6.57
2022-08-19T02:08:13.036Z,6.37
2022-08-19T02:10:44.843Z,6.97
2022-08-19T02:13:14.631Z,6.60
2022-08-19T02:15:43.318Z,6.73
2022-08-19T02:18:12.175Z,6.43
2022-08-19T02:20:42.397Z,7.20
2022-08-19T02:23:16.075Z,7.27
2022-08-19T02:25:45.452Z,6.80
2022-08-19T02:28:18.019Z,7.47
2022-08-19T02:30:48.410Z,6.67
2022-08-19T02:33:18.217Z,7.20
2022-08-19T02:35:47.541Z,6.87
2022-08-19T02:38:28.729Z,6.77
2022-08-19T02:41:00.443Z,7.07
2022-08-19T02:43:32.195Z,7.27
2022-08-19T02:46:02.771Z,6.63
2022-08-19T02:48:31.083Z,8.37
2022-08-19T02:51:00.470Z,7.90
2022-08-19T02:53:30.938Z,8.37
2022-08-19T02:55:59.411Z,8.87
2022-08-19T02:58:28.365Z,8.73
2022-08-19T03:00:58.357Z,8.20
2022-08-19T03:03:26.931Z,8.30
2022-08-19T03:06:05.865Z,8.20
2022-08-19T03:08:35.678Z,9.00
2022-08-19T03:11:04.486Z,8.43
2022-08-19T03:13:32.975Z,8.03
2022-08-19T03:16:01.121Z,9.33
2022-08-19T03:18:29.294Z,9.63
2022-08-19T03:20:58.204Z,9.30
2022-08-19T03:23:26.304Z,9.30
2022-08-19T03:26:03.005Z,9.53
2022-08-19T03:28:51.380Z,9.33
2022-08-19T03:31:44.857Z,9.73
2022-08-19T03:34:18.298Z,9.77
2022-08-19T03:36:47.207Z,8.97
2022-08-19T03:39:16.133Z,8.70
2022-08-19T03:41:48.545Z,9.47
2022-08-19T03:44:19.405Z,11.40
2022-08-19T03:46:49.045Z,10.87
2022-08-19T03:49:18.178Z,10.63
2022-08-19T03:51:48.031Z,10.60
2022-08-19T03:54:18.567Z,10.27
2022-08-19T03:56:51.049Z,9.77
2022-08-19T03:59:22.278Z,11.30
2022-08-19T04:01:50.405Z,10.63
2022-08-19T04:04:20.007Z,11.83
2022-08-19T04:06:48.949Z,10.80
2022-08-19T04:09:17.875Z,10.80
2022-08-19T04:11:50.483Z,9.97
2022-08-19T04:14:21.071Z,10.80
2022-08-19T04:16:50.626Z,10.97
2022-08-19T04:19:20.976Z,11.07
2022-08-19T04:21:52.619Z,11.47
2022-08-19T04:24:21.783Z,12.40
2022-08-19T04:26:52.166Z,12.00
2022-08-19T04:29:22.778Z,12.60
2022-08-19T04:31:52.127Z,11.33
2022-08-19T04:34:24.399Z,10.93
2022-08-19T04:36:54.007Z,11.83
2022-08-19T04:39:46.780Z,11.47
2022-08-19T04:42:35.480Z,10.37
2022-08-19T04:45:05.278Z,11.13
2022-08-19T04:47:47.576Z,10.20
2022-08-19T04:50:23.625Z,10.73
2022-08-19T04:52:53.614Z,10.50
2022-08-19T04:55:21.924Z,11.73
2022-08-19T04:57:51.888Z,11.00
2022-08-19T05:00:20.492Z,11.87
2022-08-19T05:02:50.371Z,12.43
2022-08-19T05:05:20.792Z,11.67
2022-08-19T05:07:49.068Z,12.80
2022-08-19T05:10:17.559Z,12.77
2022-08-19T05:12:45.853Z,12.53
2022-08-19T05:15:15.690Z,12.33
2022-08-19T05:18:04.444Z,13.40
2022-08-19T05:20:50.279Z,13.90
2022-08-19T05:23:22.061Z,13.10
2022-08-19T05:25:51.459Z,13.03
2022-08-19T05:28:19.831Z,13.27
2022-08-19T05:30:51.813Z,12.87
2022-08-19T05:33:20.535Z,13.43
2022-08-19T05:35:50.521Z,12.30
2022-08-19T05:38:20.461Z,14.60
2022-08-19T05:40:52.263Z,13.17
2022-08-19T05:43:20.956Z,13.77
2022-08-19T05:45:51.891Z,13.07
2022-08-19T05:48:29.351Z,15.03
2022-08-19T05:50:58.800Z,13.43
2022-08-19T05:53:30.901Z,14.40
2022-08-19T05:55:59.057Z,14.47
2022-08-19T05:58:28.281Z,15.23
2022-08-19T06:00:57.812Z,15.07
2022-08-19T06:03:25.889Z,17.87
2022-08-19T06:05:56.076Z,18.43
2022-08-19T06:08:34.227Z,16.87
2022-08-19T06:11:18.049Z,20.07
2022-08-19T06:13:48.601Z,21.17
2022-08-19T06:16:23.260Z,23.73
2022-08-19T06:18:53.565Z,22.13
2022-08-19T06:21:22.715Z,22.83
2022-08-19T06:23:51.924Z,23.67
2022-08-19T06:26:21.962Z,21.10
2022-08-19T06:28:50.653Z,27.20
2022-08-19T06:31:25.249Z,23.03
2022-08-19T06:33:53.878Z,27.13
2022-08-19T06:36:28.577Z,24.43
2022-08-19T06:38:57.987Z,31.80
2022-08-19T06:41:26.676Z,30.10
2022-08-19T06:43:55.733Z,33.13
2022-08-19T06:46:26.285Z,31.67
2022-08-19T06:48:55.890Z,29.47
2022-08-19T06:51:24.941Z,32.17
2022-08-19T06:53:55.077Z,26.40
2022-08-19T06:56:31.862Z,29.70
2022-08-19T06:59:00.157Z,29.77
2022-08-19T07:01:30.378Z,34.53
2022-08-19T07:03:58.633Z,39.87
2022-08-19T07:06:43.303Z,42.33
2022-08-19T07:09:14.175Z,40.37
2022-08-19T07:11:46.737Z,39.37
2022-08-19T07:14:19.586Z,40.27
2022-08-19T07:16:52.490Z,40.80
2022-08-19T07:19:22.126Z,37.27
2022-08-19T07:21:52.004Z,37.17
2022-08-19T07:24:21.018Z,40.53
2022-08-19T07:26:51.768Z,33.90
2022-08-19T07:29:21.418Z,39.43
2022-08-19T07:31:57.090Z,38.93
2022-08-19T07:34:26.398Z,38.27
2022-08-19T07:36:56.582Z,36.63
2022-08-19T07:39:27.593Z,36.37
2022-08-19T07:41:56.642Z,32.63
2022-08-19T07:44:24.826Z,32.37
2022-08-19T07:46:57.818Z,36.60
2022-08-19T07:49:26.806Z,32.47
2022-08-19T07:51:57.574Z,32.30
2022-08-19T07:54:28.121Z,21.57
2022-08-19T07:56:56.264Z,30.23
2022-08-19T07:59:25.145Z,29.83
2022-08-19T08:01:55.062Z,28.53
2022-08-19T08:04:41.087Z,27.70
2022-08-19T08:07:31.487Z,26.93
2022-08-19T08:10:03.065Z,27.07
2022-08-19T08:12:35.297Z,26.33
2022-08-19T08:15:08.958Z,23.90
2022-08-19T08:17:49.056Z,26.27
2022-08-19T08:20:18.522Z,22.53
2022-08-19T08:23:06.935Z,23.10
2022-08-19T08:25:36.729Z,23.97
2022-08-19T08:28:11.439Z,23.07
2022-08-19T08:30:48.964Z,20.70
2022-08-19T08:33:33.866Z,21.83
2022-08-19T08:36:06.481Z,19.70
2022-08-19T08:38:40.146Z,19.77
2022-08-19T08:41:20.907Z,19.10
2022-08-19T08:43:54.227Z,17.53
2022-08-19T08:46:30.983Z,15.63
2022-08-19T08:49:19.882Z,18.10
2022-08-19T08:51:59.602Z,15.50
2022-08-19T08:54:37.806Z,17.57
2022-08-19T08:57:12.154Z,17.87
2022-08-19T08:59:43.954Z,18.13
2022-08-19T09:02:12.701Z,19.07
2022-08-19T09:04:42.705Z,14.83
2022-08-19T09:07:47.371Z,15.07
2022-08-19T09:10:25.796Z,16.17
2022-08-19T09:13:03.432Z,13.23
2022-08-19T09:15:45.581Z,15.20
2022-08-19T09:18:19.214Z,19.77
2022-08-19T09:20:54.049Z,21.53
2022-08-19T09:23:26.788Z,19.53
2022-08-19T09:25:56.259Z,19.63
2022-08-19T09:28:27.524Z,23.47
2022-08-19T09:30:56.700Z,23.07
2022-08-19T09:33:25.407Z,24.33
2022-08-19T09:36:08.531Z,22.07
2022-08-19T09:38:43.665Z,22.10
2022-08-19T09:41:26.383Z,22.77
2022-08-19T09:43:59.337Z,21.87
2022-08-19T09:46:45.983Z,21.07
2022-08-19T09:49:22.767Z,21.63
2022-08-19T09:52:00.753Z,23.37
2022-08-19T09:54:46.871Z,20.70
2022-08-19T09:57:56.895Z,19.73
2022-08-19T10:00:44.055Z,21.13
2022-08-19T10:03:19.382Z,25.87
2022-08-19T10:05:55.127Z,23.03
2022-08-19T10:08:27.750Z,22.37
2022-08-19T10:10:57.024Z,26.60
2022-08-19T10:13:29.989Z,24.63
2022-08-19T10:16:04.104Z,26.07
2022-08-19T10:18:35.225Z,26.47
2022-08-19T10:21:11.630Z,23.70
2022-08-19T10:23:46.118Z,17.50
2022-08-19T10:26:21.187Z,20.57
2022-08-19T10:28:50.533Z,22.23
2022-08-19T10:31:21.871Z,20.33
2022-08-19T10:34:26.787Z,19.67
2022-08-19T10:37:01.241Z,16.77
2022-08-19T10:39:42.533Z,18.47
2022-08-19T10:42:14.483Z,17.03
2022-08-19T10:44:54.041Z,18.27
2022-08-19T10:47:25.586Z,18.63
2022-08-19T10:50:15.930Z,16.90
2022-08-19T10:52:50.854Z,18.67
2022-08-19T10:55:43.684Z,16.97
2022-08-19T10:58:14.364Z,16.80
2022-08-19T11:00:45.008Z,15.97
2022-08-19T11:03:18.438Z,15.57
2022-08-19T11:05:47.470Z,15.10
2022-08-19T11:08:23.402Z,16.70
2022-08-19T11:11:01.732Z,14.00
2022-08-19T11:13:30.376Z,14.97
2022-08-19T11:16:05.119Z,14.63
2022-08-19T11:18:39.550Z,12.63
2022-08-19T11:21:09.638Z,11.40
2022-08-19T11:23:37.895Z,11.57
2022-08-19T11:26:07.476Z,10.60
2022-08-19T11:28:36.006Z,12.97
2022-08-19T11:31:05.239Z,12.70
2022-08-19T11:33:33.870Z,12.40
2022-08-19T11:36:02.785Z,10.23
2022-08-19T11:38:31.708Z,11.20
2022-08-19T11:41:01.374Z,9.03
2022-08-19T11:43:36.744Z,9.90
2022-08-19T11:46:08.939Z,9.47
2022-08-19T11:48:37.709Z,9.80
2022-08-19T11:51:08.575Z,9.90
2022-08-19T11:53:37.627Z,9.10
2022-08-19T11:56:06.753Z,10.80
2022-08-19T11:58:36.435Z,9.93
2022-08-19T12:01:09.118Z,10.37
2022-08-19T12:03:37.855Z,8.93
2022-08-19T12:06:08.279Z,9.00
2022-08-19T12:08:37.206Z,8.97
2022-08-19T12:11:05.570Z,8.20
2022-08-19T12:14:31.992Z,7.57
2022-08-19T12:17:02.989Z,7.00
2022-08-19T12:19:31.200Z,6.90
2022-08-19T12:22:02.635Z,6.63
2022-08-19T12:24:33.041Z,7.63
2022-08-19T12:27:03.143Z,7.80
2022-08-19T12:29:31.925Z,8.43
2022-08-19T12:58:31.194Z,6.70
2022-08-19T13:00:59.920Z,6.67
2022-08-19T13:03:30.870Z,6.33
2022-08-19T13:06:02.286Z,6.67
2022-08-19T13:08:48.728Z,6.03
2022-08-19T13:16:53.432Z,5.03
2022-08-19T13:20:11.135Z,5.20
2022-08-19T13:51:23.132Z,5.27
2022-08-19T15:55:41.360Z,10.97
2022-08-19T18:58:12.588Z,6.00
2022-08-19T19:00:43.961Z,5.73
2022-08-19T19:03:30.813Z,6.20
2022-08-19T19:05:59.738Z,5.87
2022-08-19T19:08:28.162Z,7.03
2022-08-19T19:10:58.948Z,7.60
2022-08-19T19:13:29.006Z,7.90
2022-08-19T19:15:59.960Z,7.10
2022-08-19T19:18:28.592Z,6.90
2022-08-19T19:20:57.425Z,7.17
2022-08-19T19:23:26.036Z,6.33
2022-08-19T19:25:54.511Z,6.30
2022-08-19T19:28:25.377Z,6.47
2022-08-19T19:30:57.845Z,6.50
2022-08-19T19:33:29.034Z,6.80
2022-08-19T19:35:57.637Z,6.23
2022-08-19T19:38:26.069Z,7.13
2022-08-19T19:40:54.268Z,7.83
2022-08-19T19:43:22.661Z,6.73
2022-08-19T19:45:52.045Z,7.87
2022-08-19T19:48:20.591Z,7.53
2022-08-19T19:50:54.278Z,7.97
2022-08-19T19:53:26.199Z,8.27
2022-08-19T19:55:58.817Z,7.37
2022-08-19T19:58:28.863Z,7.93
2022-08-19T20:00:59.402Z,8.33
2022-08-19T20:03:29.960Z,8.33
2022-08-19T20:06:00.570Z,7.60
2022-08-19T20:08:46.762Z,8.80
2022-08-19T20:11:30.637Z,8.40
2022-08-19T20:14:01.841Z,9.17
2022-08-19T20:16:31.586Z,9.33
2022-08-19T20:19:01.616Z,8.00
2022-08-19T20:21:34.866Z,9.03
2022-08-19T20:24:09.050Z,8.70
2022-08-19T20:26:38.394Z,7.83
2022-08-19T20:29:13.617Z,7.97
2022-08-19T20:31:57.703Z,9.63
2022-08-19T20:34:28.806Z,9.57
2022-08-19T20:36:59.002Z,8.63
2022-08-19T20:39:29.343Z,10.47
2022-08-19T20:41:57.574Z,9.43
2022-08-19T20:44:25.903Z,9.80
2022-08-19T20:46:54.203Z,9.73
2022-08-19T20:49:26.993Z,8.87
2022-08-19T20:51:55.898Z,8.73
2022-08-19T20:54:25.873Z,9.03
2022-08-19T20:56:54.586Z,8.93
2022-08-19T20:59:23.721Z,9.17
2022-08-19T21:01:52.544Z,8.50
2022-08-19T21:04:22.422Z,9.97
2022-08-19T21:06:51.224Z,10.17
2022-08-19T21:09:20.957Z,9.27
2022-08-19T21:11:52.016Z,8.90
2022-08-19T21:14:20.484Z,8.77
2022-08-19T21:16:49.352Z,9.97
2022-08-19T21:19:22.018Z,11.37
2022-08-19T21:21:52.162Z,10.27
2022-08-19T21:24:20.318Z,8.60
2022-08-19T21:26:51.299Z,10.77
2022-08-19T21:29:21.965Z,11.37
2022-08-19T21:31:50.368Z,11.93
2022-08-19T21:34:18.723Z,13.80
2022-08-19T21:36:47.178Z,13.77
2022-08-19T21:39:15.450Z,12.13
2022-08-19T21:41:43.915Z,13.50
2022-08-19T21:44:12.195Z,12.67
2022-08-19T21:46:41.880Z,12.60
2022-08-19T21:49:10.243Z,12.20
2022-08-19T21:51:38.420Z,15.00
2022-08-19T21:54:06.607Z,13.13
2022-08-19T21:56:35.133Z,13.67
2022-08-19T21:59:03.346Z,14.53
2022-08-19T22:01:31.464Z,13.03
2022-08-19T22:04:01.014Z,12.30
2022-08-19T22:06:29.332Z,13.13
2022-08-19T22:08:57.647Z,13.67
2022-08-19T22:11:27.087Z,15.83
2022-08-19T22:13:56.170Z,14.73
2022-08-19T22:16:25.376Z,15.47
2022-08-19T22:18:53.502Z,15.37
2022-08-19T22:21:39.737Z,14.57
2022-08-19T22:24:09.356Z,12.37
2022-08-19T22:26:37.472Z,12.87
2022-08-19T22:29:05.603Z,15.10
2022-08-19T22:31:34.012Z,13.93
2022-08-19T22:34:03.818Z,15.27
2022-08-19T22:36:33.624Z,14.07
2022-08-19T22:39:02.522Z,14.27
2022-08-19T22:41:33.370Z,13.10
2022-08-19T22:44:01.713Z,11.43
2022-08-19T22:46:30.000Z,11.07
2022-08-19T22:49:01.007Z,8.80
2022-08-19T22:51:47.613Z,9.00
2022-08-19T22:54:18.152Z,7.63
2022-08-19T22:56:46.516Z,7.00
2022-08-19T22:59:14.579Z,7.63
2022-08-19T23:01:42.989Z,7.77
2022-08-19T23:04:11.376Z,7.90
2022-08-19T23:06:42.015Z,8.93
2022-08-19T23:09:16.614Z,10.47
2022-08-19T23:11:47.177Z,9.83
2022-08-19T23:14:16.212Z,10.87
2022-08-19T23:16:50.474Z,11.77
2022-08-19T23:19:19.450Z,10.63
2022-08-19T23:21:47.747Z,10.67
2022-08-19T23:24:16.005Z,11.70
2022-08-19T23:27:04.520Z,12.13
2022-08-19T23:29:51.538Z,13.67
2022-08-19T23:32:21.176Z,12.83
2022-08-19T23:34:50.071Z,12.87
2022-08-19T23:37:18.414Z,11.70
2022-08-19T23:39:46.723Z,14.43
2022-08-19T23:42:15.818Z,14.20
2022-08-19T23:44:52.359Z,14.33
2022-08-19T23:47:21.856Z,14.53
2022-08-19T23:49:50.781Z,14.77
2022-08-19T23:52:19.160Z,14.80
2022-08-19T23:54:47.313Z,15.50
2022-08-19T23:57:15.535Z,14.67
2022-08-19T23:59:46.370Z,14.77
